createdAt,value
2023-10-27T00:00:56.675Z,85.10
2023-10-27T00:03:23.365Z,85.20
2023-10-27T00:05:50.087Z,85.20
2023-10-27T00:08:16.900Z,85.30
2023-10-27T00:10:43.784Z,85.20
2023-10-27T00:13:10.553Z,85.30
2023-10-27T00:15:37.358Z,86.10
2023-10-27T00:18:04.463Z,85.30
2023-10-27T00:20:33.063Z,85.50
2023-10-27T00:22:59.735Z,85.50
2023-10-27T00:25:26.479Z,85.50
2023-10-27T00:27:53.183Z,85.40
2023-10-27T00:30:19.900Z,85.40
2023-10-27T00:32:47.417Z,86.20
2023-10-27T00:35:14.753Z,85.40
2023-10-27T00:37:41.966Z,85.40
2023-10-27T00:40:09.417Z,85.40
2023-10-27T00:42:36.189Z,85.30
2023-10-27T00:45:03.305Z,85.40
2023-10-27T00:47:31.408Z,85.40
2023-10-27T00:49:58.528Z,85.40
2023-10-27T00:52:26.865Z,85.50
2023-10-27T00:54:55.188Z,85.40
2023-10-27T00:57:24.160Z,85.50
2023-10-27T00:59:54.185Z,85.50
2023-10-27T01:02:22.293Z,85.60
2023-10-27T01:04:49.940Z,85.40
2023-10-27T01:07:17.169Z,85.60
2023-10-27T01:09:44.173Z,85.50
2023-10-27T01:12:10.958Z,85.50
2023-10-27T01:14:38.938Z,85.60
2023-10-27T01:17:05.592Z,85.70
2023-10-27T01:19:32.467Z,85.70
2023-10-27T01:21:59.188Z,85.60
2023-10-27T01:24:25.930Z,85.60
2023-10-27T01:26:52.617Z,85.60
2023-10-27T01:29:19.366Z,85.60
2023-10-27T01:31:45.959Z,85.60
2023-10-27T01:34:12.744Z,85.60
2023-10-27T01:36:39.368Z,85.60
2023-10-27T01:39:06.115Z,85.70
2023-10-27T01:41:32.956Z,85.70
2023-10-27T01:43:59.859Z,85.60
2023-10-27T01:46:26.592Z,85.60
2023-10-27T01:48:54.940Z,85.60
2023-10-27T01:51:22.325Z,85.60
2023-10-27T01:53:49.560Z,85.60
2023-10-27T01:56:16.522Z,85.60
2023-10-27T01:58:45.454Z,85.60
2023-10-27T02:01:15.554Z,85.60
2023-10-27T02:03:42.753Z,85.60
2023-10-27T02:06:09.662Z,85.60
2023-10-27T02:08:36.556Z,85.60
2023-10-27T02:11:04.211Z,85.70
2023-10-27T02:13:31.059Z,85.70
2023-10-27T02:15:58.052Z,85.70
2023-10-27T02:18:24.748Z,85.70
2023-10-27T02:20:51.423Z,85.70
2023-10-27T02:23:18.575Z,85.80
2023-10-27T02:25:45.565Z,85.80
2023-10-27T02:28:12.413Z,85.80
2023-10-27T02:30:39.173Z,85.90
2023-10-27T02:33:05.960Z,85.90
2023-10-27T02:35:32.794Z,85.90
2023-10-27T02:37:59.830Z,86.00
2023-10-27T02:40:26.500Z,85.90
2023-10-27T02:42:53.730Z,86.00
2023-10-27T02:45:20.611Z,85.90
2023-10-27T02:47:47.428Z,86.00
2023-10-27T02:50:14.495Z,86.00
2023-10-27T02:52:41.206Z,86.00
2023-10-27T02:55:08.872Z,86.10
2023-10-27T02:57:35.536Z,86.10
2023-10-27T03:00:02.771Z,86.10
2023-10-27T03:02:29.503Z,86.20
2023-10-27T03:04:57.027Z,86.20
2023-10-27T03:07:24.052Z,86.10
2023-10-27T03:09:50.774Z,86.10
2023-10-27T03:12:17.796Z,86.20
2023-10-27T03:14:45.080Z,86.20
2023-10-27T03:17:11.808Z,86.20
2023-10-27T03:19:38.593Z,86.20
2023-10-27T03:22:05.741Z,86.20
2023-10-27T03:24:32.716Z,86.20
2023-10-27T03:26:59.356Z,86.20
2023-10-27T03:29:26.197Z,86.20
2023-10-27T03:31:53.065Z,86.20
2023-10-27T03:34:19.814Z,86.20
2023-10-27T03:36:46.545Z,86.10
2023-10-27T03:39:13.649Z,86.10
2023-10-27T03:41:40.271Z,86.10
2023-10-27T03:44:07.975Z,86.20
2023-10-27T03:46:34.626Z,86.20
2023-10-27T03:49:01.548Z,86.30
2023-10-27T03:51:28.377Z,86.30
2023-10-27T03:53:55.920Z,86.30
2023-10-27T03:56:22.699Z,86.10
2023-10-27T03:58:49.421Z,86.20
2023-10-27T04:01:16.949Z,86.10
2023-10-27T04:03:43.982Z,86.10
2023-10-27T04:06:12.594Z,86.10
2023-10-27T04:08:39.352Z,86.20
2023-10-27T04:11:06.019Z,86.20
2023-10-27T04:13:32.714Z,86.20
2023-10-27T04:15:59.424Z,86.20
2023-10-27T04:18:26.155Z,86.20
2023-10-27T04:20:52.891Z,86.20
2023-10-27T04:23:19.560Z,87.00
2023-10-27T04:25:46.252Z,86.20
2023-10-27T04:28:12.958Z,86.20
2023-10-27T04:30:39.756Z,86.30
2023-10-27T04:33:07.280Z,86.20
2023-10-27T04:35:34.297Z,86.20
2023-10-27T04:38:01.173Z,86.20
2023-10-27T04:40:32.861Z,86.20
2023-10-27T04:43:01.086Z,86.20
2023-10-27T04:45:28.341Z,86.20
2023-10-27T04:47:55.803Z,86.20
2023-10-27T04:50:23.523Z,86.20
2023-10-27T04:52:50.199Z,86.20
2023-10-27T04:55:17.197Z,86.20
2023-10-27T04:57:44.036Z,86.10
2023-10-27T05:00:11.232Z,86.10
2023-10-27T05:02:38.136Z,86.20
2023-10-27T05:05:05.439Z,86.30
2023-10-27T05:07:32.237Z,86.30
2023-10-27T05:09:58.961Z,86.30
2023-10-27T05:12:25.751Z,86.20
2023-10-27T05:14:52.491Z,86.20
2023-10-27T05:17:19.260Z,86.20
2023-10-27T05:19:46.405Z,86.20
2023-10-27T05:22:14.523Z,86.20
2023-10-27T05:24:41.885Z,86.10
2023-10-27T05:27:08.869Z,86.20
2023-10-27T05:29:35.513Z,86.10
2023-10-27T05:32:02.162Z,86.10
2023-10-27T05:34:31.973Z,86.20
2023-10-27T05:36:59.300Z,86.20
2023-10-27T05:39:28.001Z,86.20
2023-10-27T05:41:55.017Z,86.30
2023-10-27T05:44:22.097Z,86.20
2023-10-27T05:46:49.181Z,86.30
2023-10-27T05:49:15.993Z,86.30
2023-10-27T05:51:42.654Z,86.30
2023-10-27T05:54:09.403Z,86.30
2023-10-27T05:56:36.068Z,86.30
2023-10-27T05:59:02.935Z,86.30
2023-10-27T06:01:29.692Z,86.30
2023-10-27T06:03:58.863Z,86.30
2023-10-27T06:06:26.804Z,86.20
2023-10-27T06:08:53.692Z,86.20
2023-10-27T06:11:20.621Z,86.20
2023-10-27T06:13:47.373Z,86.30
2023-10-27T06:16:14.091Z,86.20
2023-10-27T06:18:41.053Z,86.30
2023-10-27T06:21:07.800Z,86.30
2023-10-27T06:23:34.501Z,86.30
2023-10-27T06:26:01.428Z,86.20
2023-10-27T06:28:28.150Z,86.20
2023-10-27T06:30:54.912Z,86.20
2023-10-27T06:33:23.285Z,86.20
2023-10-27T06:35:50.243Z,86.20
2023-10-27T06:38:16.923Z,86.10
2023-10-27T06:40:43.654Z,86.10
2023-10-27T06:43:10.438Z,86.20
2023-10-27T06:45:37.131Z,86.20
2023-10-27T06:48:04.116Z,86.10
2023-10-27T06:50:31.032Z,86.20
2023-10-27T06:52:57.745Z,86.20
2023-10-27T06:55:24.510Z,86.20
2023-10-27T06:57:51.278Z,86.20
2023-10-27T07:00:18.179Z,86.20
2023-10-27T07:02:55.787Z,86.10
2023-10-27T07:05:24.805Z,86.00
2023-10-27T07:07:52.331Z,86.10
2023-10-27T07:10:19.095Z,86.10
2023-10-27T07:12:45.782Z,86.00
2023-10-27T07:15:14.205Z,86.00
2023-10-27T07:17:42.364Z,86.10
2023-10-27T07:20:09.839Z,86.10
2023-10-27T07:22:37.814Z,86.10
2023-10-27T07:25:05.855Z,86.20
2023-10-27T07:27:34.323Z,86.20
2023-10-27T07:30:01.193Z,86.20
2023-10-27T07:32:27.945Z,86.20
2023-10-27T07:34:54.789Z,86.30
2023-10-27T07:37:24.437Z,86.30
2023-10-27T07:39:51.173Z,86.30
2023-10-27T07:42:17.852Z,86.30
2023-10-27T07:44:44.780Z,86.30
2023-10-27T07:47:11.937Z,86.30
2023-10-27T07:49:38.635Z,86.30
2023-10-27T07:52:06.973Z,86.40
2023-10-27T07:54:33.870Z,86.20
2023-10-27T07:57:00.740Z,86.20
2023-10-27T07:59:29.065Z,86.30
2023-10-27T08:02:00.696Z,86.30
2023-10-27T08:04:28.138Z,87.00
2023-10-27T08:06:55.052Z,86.30
2023-10-27T08:09:21.796Z,86.30
2023-10-27T08:11:51.944Z,86.30
2023-10-27T08:14:18.770Z,86.30
2023-10-27T08:16:46.179Z,86.20
2023-10-27T08:19:14.319Z,86.20
2023-10-27T08:21:47.589Z,86.90
2023-10-27T08:24:14.294Z,86.20
2023-10-27T08:26:41.148Z,86.20
2023-10-27T08:29:07.818Z,86.20
2023-10-27T08:31:34.950Z,86.20
2023-10-27T08:34:02.160Z,86.20
2023-10-27T08:36:28.846Z,86.20
2023-10-27T08:38:56.089Z,86.10
2023-10-27T08:41:26.368Z,86.90
2023-10-27T08:43:57.083Z,86.10
2023-10-27T08:46:25.930Z,86.10
2023-10-27T08:48:52.779Z,86.00
2023-10-27T08:51:21.900Z,86.10
2023-10-27T08:53:48.948Z,86.00
2023-10-27T08:56:16.214Z,86.00
2023-10-27T08:58:52.685Z,86.00
2023-10-27T09:01:19.569Z,86.10
2023-10-27T09:04:15.049Z,86.10
2023-10-27T09:06:43.016Z,86.00
2023-10-27T09:09:12.994Z,85.80
2023-10-27T09:11:44.870Z,85.80
2023-10-27T09:14:23.893Z,85.90
2023-10-27T09:16:52.208Z,86.00
2023-10-27T09:19:20.233Z,85.90
2023-10-27T09:21:46.906Z,85.90
2023-10-27T09:24:28.539Z,86.00
2023-10-27T09:26:57.616Z,85.90
2023-10-27T09:29:24.971Z,85.90
2023-10-27T09:31:52.550Z,85.90
2023-10-27T09:34:27.380Z,86.00
2023-10-27T09:36:59.421Z,85.90
2023-10-27T09:39:27.238Z,86.00
2023-10-27T09:42:05.539Z,86.00
2023-10-27T09:44:46.386Z,86.00
2023-10-27T09:47:19.864Z,86.00
2023-10-27T09:49:52.550Z,85.90
2023-10-27T09:52:22.060Z,85.80
2023-10-27T09:54:57.622Z,85.90
2023-10-27T09:57:29.880Z,86.10
2023-10-27T09:59:59.149Z,86.10
2023-10-27T10:02:26.546Z,86.10
2023-10-27T10:04:53.309Z,86.10
2023-10-27T10:07:29.912Z,86.00
2023-10-27T10:09:57.078Z,86.10
2023-10-27T10:12:23.735Z,86.00
2023-10-27T10:14:51.159Z,86.00
2023-10-27T10:17:41.454Z,86.10
2023-10-27T10:20:10.384Z,86.10
2023-10-27T10:22:45.672Z,86.00
2023-10-27T10:25:24.538Z,86.00
2023-10-27T10:28:12.684Z,86.00
2023-10-27T10:30:44.520Z,86.10
2023-10-27T10:33:20.698Z,86.00
2023-10-27T10:35:48.203Z,86.00
2023-10-27T10:38:24.042Z,85.90
2023-10-27T10:40:53.152Z,86.00
2023-10-27T10:43:37.745Z,86.00
2023-10-27T10:46:13.674Z,85.80
2023-10-27T10:48:45.756Z,85.80
2023-10-27T10:51:33.450Z,86.00
2023-10-27T10:54:00.075Z,85.90
2023-10-27T10:56:26.749Z,85.90
2023-10-27T10:58:54.109Z,85.90
2023-10-27T11:01:22.970Z,85.90
2023-10-27T11:03:52.302Z,85.90
2023-10-27T11:06:23.862Z,85.80
2023-10-27T11:08:50.932Z,85.80
2023-10-27T11:11:18.826Z,85.80
2023-10-27T11:13:51.173Z,85.80
2023-10-27T11:16:23.451Z,85.70
2023-10-27T11:18:53.827Z,85.60
2023-10-27T11:21:23.768Z,86.40
2023-10-27T11:23:52.055Z,85.60
2023-10-27T11:26:21.324Z,85.70
2023-10-27T11:28:48.626Z,85.70
2023-10-27T11:31:24.617Z,85.70
2023-10-27T11:34:04.754Z,85.50
2023-10-27T11:36:36.600Z,85.50
2023-10-27T11:39:20.482Z,85.50
2023-10-27T11:42:00.479Z,85.60
2023-10-27T11:44:28.202Z,85.60
2023-10-27T11:47:05.819Z,85.50
2023-10-27T11:49:33.467Z,85.50
2023-10-27T11:52:00.510Z,85.60
2023-10-27T11:54:28.572Z,85.60
2023-10-27T11:56:55.527Z,85.70
2023-10-27T11:59:26.998Z,85.70
2023-10-27T12:01:54.567Z,85.70
2023-10-27T12:04:21.619Z,85.50
2023-10-27T12:06:48.741Z,85.60
2023-10-27T12:09:15.506Z,85.70
2023-10-27T12:11:45.009Z,85.60
2023-10-27T12:14:12.146Z,86.10
2023-10-27T12:16:39.176Z,85.70
2023-10-27T12:19:05.913Z,85.60
2023-10-27T12:21:34.316Z,85.70
2023-10-27T12:24:01.316Z,85.60
2023-10-27T12:26:28.876Z,85.60
2023-10-27T12:28:55.694Z,85.60
2023-10-27T12:31:22.491Z,85.60
2023-10-27T12:33:52.662Z,85.70
2023-10-27T12:36:19.639Z,85.70
2023-10-27T12:38:46.418Z,85.40
2023-10-27T12:41:14.536Z,85.50
2023-10-27T12:43:41.536Z,85.50
2023-10-27T12:46:08.378Z,85.50
2023-10-27T12:48:35.123Z,85.50
2023-10-27T12:51:02.822Z,85.50
2023-10-27T12:53:29.632Z,85.50
2023-10-27T12:55:57.107Z,85.60
2023-10-27T12:58:24.371Z,85.50
2023-10-27T13:00:52.428Z,85.60
2023-10-27T13:03:19.689Z,85.60
2023-10-27T13:05:46.545Z,85.30
2023-10-27T13:08:13.801Z,85.10
2023-10-27T13:10:40.750Z,86.10
2023-10-27T13:13:07.904Z,85.30
2023-10-27T13:15:35.269Z,85.30
2023-10-27T13:18:03.919Z,85.30
2023-10-27T13:20:31.869Z,85.30
2023-10-27T13:22:58.653Z,85.40
2023-10-27T13:25:25.939Z,85.40
2023-10-27T13:27:53.844Z,85.30
2023-10-27T13:30:21.738Z,85.30
2023-10-27T13:32:51.013Z,85.50
2023-10-27T13:35:18.350Z,85.80
2023-10-27T13:37:45.104Z,85.70
2023-10-27T13:40:15.190Z,85.50
2023-10-27T13:42:41.989Z,85.40
2023-10-27T13:45:09.068Z,85.30
2023-10-27T13:47:35.725Z,85.10
2023-10-27T13:50:04.807Z,85.10
2023-10-27T13:52:31.876Z,85.10
2023-10-27T13:54:59.459Z,85.00
2023-10-27T13:57:26.878Z,85.00
2023-10-27T13:59:53.560Z,84.90
2023-10-27T14:02:21.371Z,85.00
2023-10-27T14:04:48.737Z,84.90
2023-10-27T14:07:15.967Z,84.80
2023-10-27T14:09:42.693Z,84.90
2023-10-27T14:12:10.049Z,84.90
2023-10-27T14:14:36.728Z,85.00
2023-10-27T14:17:03.929Z,85.00
2023-10-27T14:19:30.953Z,84.90
2023-10-27T14:21:58.084Z,84.90
2023-10-27T14:24:25.059Z,84.90
2023-10-27T14:26:53.118Z,84.70
2023-10-27T14:29:22.367Z,84.70
2023-10-27T14:31:49.247Z,84.80
2023-10-27T14:34:16.094Z,84.70
2023-10-27T14:36:44.260Z,84.70
2023-10-27T14:39:14.525Z,84.80
2023-10-27T14:41:42.038Z,84.80
2023-10-27T14:44:08.761Z,84.80
2023-10-27T14:46:35.528Z,84.80
2023-10-27T14:49:02.673Z,84.60
2023-10-27T14:51:29.522Z,84.60
2023-10-27T14:53:56.390Z,84.60
2023-10-27T14:56:23.170Z,84.80
2023-10-27T14:58:53.931Z,84.90
2023-10-27T15:03:48.632Z,84.80
2023-10-27T15:06:15.585Z,84.80
2023-10-27T15:08:42.205Z,84.90
2023-10-27T15:11:09.046Z,84.90
2023-10-27T15:13:36.107Z,84.90
2023-10-27T15:16:15.260Z,85.00
2023-10-27T15:18:43.027Z,85.00
2023-10-27T15:21:11.571Z,85.00
2023-10-27T15:23:38.640Z,85.00
2023-10-27T15:26:12.661Z,85.00
2023-10-27T15:28:39.621Z,85.00
2023-10-27T15:31:08.323Z,85.00
2023-10-27T15:33:36.387Z,85.10
2023-10-27T15:36:11.161Z,85.10
2023-10-27T15:38:43.980Z,85.10
2023-10-27T15:41:31.081Z,85.10
2023-10-27T15:44:00.511Z,85.20
2023-10-27T15:46:30.094Z,85.10
2023-10-27T15:48:56.739Z,85.10
2023-10-27T15:51:23.343Z,85.20
2023-10-27T15:53:51.418Z,85.10
2023-10-27T15:56:21.544Z,85.20
2023-10-27T15:58:48.328Z,85.20
2023-10-27T16:01:15.055Z,85.20
2023-10-27T16:03:41.732Z,85.20
2023-10-27T16:06:08.481Z,85.20
2023-10-27T16:08:35.251Z,85.10
2023-10-27T16:11:03.488Z,85.10
2023-10-27T16:13:30.305Z,85.00
2023-10-27T16:15:57.041Z,85.00
2023-10-27T16:18:25.207Z,85.00
2023-10-27T16:20:52.221Z,85.00
2023-10-27T16:23:18.869Z,85.00
2023-10-27T16:25:45.979Z,85.00
2023-10-27T16:28:12.665Z,85.00
2023-10-27T16:30:39.343Z,85.00
2023-10-27T16:33:07.016Z,85.00
2023-10-27T16:35:37.141Z,85.00
2023-10-27T16:38:03.922Z,85.00
2023-10-27T16:40:31.655Z,85.00
2023-10-27T16:42:58.367Z,85.10
2023-10-27T16:45:26.451Z,85.20
2023-10-27T16:47:53.232Z,85.20
2023-10-27T16:50:21.627Z,85.20
2023-10-27T16:52:48.549Z,85.20
2023-10-27T16:55:15.484Z,85.30
2023-10-27T16:57:42.411Z,85.30
2023-10-27T17:00:10.465Z,85.30
2023-10-27T17:02:37.253Z,85.30
2023-10-27T17:05:05.724Z,85.30
2023-10-27T17:07:32.432Z,85.30
2023-10-27T17:10:04.635Z,85.30
2023-10-27T17:12:34.144Z,85.30
2023-10-27T17:15:00.868Z,85.30
2023-10-27T17:17:27.759Z,85.30
2023-10-27T17:20:01.698Z,85.30
2023-10-27T17:22:40.161Z,85.30
2023-10-27T17:25:08.999Z,85.20
2023-10-27T17:27:35.983Z,85.20
2023-10-27T17:30:04.713Z,85.20
2023-10-27T17:32:31.516Z,85.20
2023-10-27T17:34:58.492Z,85.10
2023-10-27T17:37:25.335Z,85.10
2023-10-27T17:39:52.164Z,85.20
2023-10-27T17:42:18.997Z,85.00
2023-10-27T17:44:46.213Z,85.00
2023-10-27T17:47:14.322Z,85.10
2023-10-27T17:49:41.806Z,85.10
2023-10-27T17:52:09.018Z,85.10
2023-10-27T17:54:36.279Z,85.00
2023-10-27T17:57:04.218Z,84.80
2023-10-27T17:59:32.401Z,84.80
2023-10-27T18:01:59.101Z,84.80
2023-10-27T18:04:26.807Z,84.80
2023-10-27T18:06:55.764Z,84.80
2023-10-27T18:09:22.565Z,84.80
2023-10-27T18:11:49.897Z,84.70
2023-10-27T18:14:18.345Z,84.80
2023-10-27T18:16:47.527Z,84.70
2023-10-27T18:19:15.768Z,84.80
2023-10-27T18:21:42.961Z,84.80
2023-10-27T18:24:11.830Z,84.80
2023-10-27T18:26:38.859Z,84.80
2023-10-27T18:29:05.722Z,84.80
2023-10-27T18:31:32.442Z,84.90
2023-10-27T18:33:59.081Z,84.90
2023-10-27T18:36:25.823Z,84.90
2023-10-27T18:38:52.554Z,85.00
2023-10-27T18:41:19.271Z,85.00
2023-10-27T18:43:48.242Z,85.00
2023-10-27T18:46:15.382Z,84.90
2023-10-27T18:48:42.558Z,84.90
2023-10-27T18:51:09.688Z,85.00
2023-10-27T18:53:37.787Z,85.00
2023-10-27T18:56:09.808Z,85.00
2023-10-27T18:58:37.974Z,85.00
2023-10-27T19:01:09.106Z,84.90
2023-10-27T19:03:48.628Z,84.90
2023-10-27T19:06:16.962Z,84.90
2023-10-27T19:08:45.048Z,84.70
2023-10-27T19:11:13.144Z,84.60
2023-10-27T19:13:41.360Z,84.60
2023-10-27T19:16:09.860Z,84.60
2023-10-27T19:18:38.565Z,84.60
2023-10-27T19:21:11.658Z,85.40
2023-10-27T19:23:39.249Z,84.60
2023-10-27T19:26:18.867Z,84.70
2023-10-27T19:28:50.034Z,84.80
2023-10-27T19:31:18.965Z,84.80
2023-10-27T19:33:49.150Z,84.80
2023-10-27T19:36:16.570Z,84.90
2023-10-27T19:38:43.916Z,84.90
2023-10-27T19:41:12.639Z,84.90
2023-10-27T19:43:39.720Z,84.90
2023-10-27T19:46:07.846Z,84.90
2023-10-27T19:48:36.430Z,85.00
2023-10-27T19:51:04.400Z,85.00
2023-10-27T19:53:31.051Z,85.00
2023-10-27T19:55:58.453Z,84.90
2023-10-27T19:58:25.170Z,84.90
2023-10-27T20:00:52.778Z,85.10
2023-10-27T20:03:21.596Z,85.00
2023-10-27T20:05:51.993Z,85.00
2023-10-27T20:08:19.374Z,85.00
2023-10-27T20:10:49.860Z,85.00
2023-10-27T20:13:17.125Z,85.00
2023-10-27T20:15:45.793Z,85.00
2023-10-27T20:18:15.772Z,85.00
2023-10-27T20:20:45.751Z,85.00
2023-10-27T20:23:13.939Z,84.90
2023-10-27T20:25:41.078Z,84.90
2023-10-27T20:28:08.831Z,84.80
2023-10-27T20:30:36.672Z,84.80
2023-10-27T20:33:03.500Z,84.70
2023-10-27T20:35:30.279Z,84.80
2023-10-27T20:37:57.210Z,84.80
2023-10-27T20:40:25.168Z,84.70
2023-10-27T20:42:52.217Z,84.70
2023-10-27T20:45:19.619Z,84.70
2023-10-27T20:47:47.878Z,84.60
2023-10-27T20:50:15.528Z,84.60
2023-10-27T20:52:43.881Z,84.60
2023-10-27T20:55:10.830Z,84.50
2023-10-27T20:57:38.255Z,84.90
2023-10-27T21:00:05.337Z,84.60
2023-10-27T21:02:32.179Z,84.60
2023-10-27T21:04:59.264Z,84.60
2023-10-27T21:07:26.539Z,84.60
2023-10-27T21:09:53.763Z,84.60
2023-10-27T21:12:20.489Z,84.60
2023-10-27T21:14:47.539Z,84.70
2023-10-27T21:17:15.114Z,84.70
2023-10-27T21:19:41.914Z,84.70
2023-10-27T21:22:08.630Z,84.60
2023-10-27T21:24:35.793Z,84.60
2023-10-27T21:27:03.891Z,84.60
2023-10-27T21:29:30.594Z,84.60
2023-10-27T21:31:57.924Z,84.70
2023-10-27T21:34:24.681Z,84.60
2023-10-27T21:36:51.936Z,84.50
2023-10-27T21:39:18.641Z,84.60
2023-10-27T21:41:45.339Z,84.60
2023-10-27T21:44:12.019Z,84.70
2023-10-27T21:46:38.768Z,84.80
2023-10-27T21:49:05.464Z,84.70
2023-10-27T21:51:32.141Z,84.60
2023-10-27T21:53:58.768Z,84.60
2023-10-27T21:56:25.586Z,84.60
2023-10-27T21:58:52.326Z,84.60
2023-10-27T22:01:19.089Z,84.70
2023-10-27T22:03:45.819Z,84.70
2023-10-27T22:06:12.581Z,84.70
2023-10-27T22:08:42.412Z,84.80
2023-10-27T22:11:10.789Z,84.80
2023-10-27T22:13:39.492Z,84.70
2023-10-27T22:16:09.108Z,84.70
2023-10-27T22:18:36.301Z,84.70
2023-10-27T22:21:13.502Z,84.80
2023-10-27T22:23:41.396Z,84.80
2023-10-27T22:26:09.779Z,84.80
2023-10-27T22:28:36.708Z,84.70
2023-10-27T22:31:05.150Z,84.80
2023-10-27T22:33:31.903Z,84.70
2023-10-27T22:35:58.939Z,84.80
2023-10-27T22:38:26.282Z,84.90
2023-10-27T22:40:53.039Z,85.00
2023-10-27T22:43:19.678Z,85.10
2023-10-27T22:45:46.317Z,85.20
2023-10-27T22:48:13.078Z,85.20
2023-10-27T22:50:39.772Z,85.30
2023-10-27T22:53:06.616Z,85.30
2023-10-27T22:55:33.457Z,85.30
2023-10-27T22:58:00.104Z,85.30
2023-10-27T23:00:27.272Z,85.30
2023-10-27T23:02:57.683Z,85.30
2023-10-27T23:05:26.124Z,85.30
2023-10-27T23:07:54.627Z,85.30
2023-10-27T23:10:21.406Z,85.30
2023-10-27T23:12:49.063Z,85.30
2023-10-27T23:15:16.188Z,85.30
2023-10-27T23:17:43.295Z,85.20
2023-10-27T23:20:13.523Z,85.20
2023-10-27T23:22:40.516Z,85.10
2023-10-27T23:25:09.472Z,85.10
2023-10-27T23:27:36.998Z,85.00
2023-10-27T23:30:07.409Z,85.10
2023-10-27T23:32:34.079Z,85.00
2023-10-27T23:35:00.917Z,85.00
2023-10-27T23:37:28.477Z,85.00
2023-10-27T23:39:55.614Z,85.00
2023-10-27T23:42:22.323Z,85.10
2023-10-27T23:44:49.032Z,85.20
2023-10-27T23:47:16.561Z,85.20
2023-10-27T23:49:43.421Z,85.20
2023-10-27T23:52:10.233Z,85.30
2023-10-27T23:54:40.073Z,85.30
2023-10-27T23:57:06.709Z,85.40
2023-10-27T23:59:35.892Z,85.40
